createdAt,value
2019-05-23T00:01:48.457Z,88.20
2019-05-23T00:04:45.161Z,88.90
2019-05-23T00:07:31.216Z,88.96
2019-05-23T00:10:21.569Z,88.45
2019-05-23T00:12:54.971Z,88.12
2019-05-23T00:15:34.444Z,87.79
2019-05-23T00:18:01.515Z,88.65
2019-05-23T00:20:29.507Z,88.81
2019-05-23T00:22:57.077Z,89.20
2019-05-23T00:25:24.209Z,89.32
2019-05-23T00:27:52.687Z,89.46
2019-05-23T00:30:24.582Z,89.14
2019-05-23T00:32:53.281Z,88.89
2019-05-23T00:35:20.409Z,88.55
2019-05-23T00:37:48.181Z,89.11
2019-05-23T00:40:16.290Z,88.82
2019-05-23T00:42:44.720Z,89.21
2019-05-23T00:45:15.171Z,88.76
2019-05-23T00:47:42.037Z,88.81
2019-05-23T00:50:10.343Z,89.43
2019-05-23T00:52:37.836Z,89.67
2019-05-23T00:55:05.963Z,89.56
2019-05-23T00:57:33.030Z,89.72
2019-05-23T01:00:00.393Z,90.19
2019-05-23T01:02:27.231Z,90.24
2019-05-23T01:04:54.087Z,90.12
2019-05-23T01:07:21.154Z,90.07
2019-05-23T01:09:49.148Z,89.90
2019-05-23T01:12:16.119Z,90.05
2019-05-23T01:14:43.175Z,90.29
2019-05-23T01:17:11.741Z,90.11
2019-05-23T01:19:39.111Z,90.29
2019-05-23T01:22:10.296Z,89.58
2019-05-23T01:24:42.366Z,89.50
2019-05-23T01:27:09.881Z,89.94
2019-05-23T01:29:39.194Z,90.01
2019-05-23T01:32:25.550Z,90.22
2019-05-23T01:34:52.912Z,89.76
2019-05-23T01:37:20.881Z,89.84
2019-05-23T01:39:48.100Z,89.03
2019-05-23T01:42:15.987Z,88.43
2019-05-23T01:44:43.361Z,89.33
2019-05-23T01:47:10.934Z,88.82
2019-05-23T01:49:38.483Z,89.87
2019-05-23T01:52:06.303Z,89.81
2019-05-23T01:54:33.223Z,89.88
2019-05-23T01:57:00.130Z,90.27
2019-05-23T01:59:27.741Z,89.92
2019-05-23T02:01:54.443Z,90.31
2019-05-23T02:04:22.076Z,90.16
2019-05-23T02:06:48.813Z,90.02
2019-05-23T02:09:16.450Z,90.26
2019-05-23T02:11:43.318Z,90.02
2019-05-23T02:14:10.883Z,90.09
2019-05-23T02:16:38.445Z,90.72
2019-05-23T02:19:07.214Z,90.96
2019-05-23T02:21:34.746Z,91.11
2019-05-23T02:24:04.670Z,91.07
2019-05-23T02:26:32.155Z,90.71
2019-05-23T02:29:00.345Z,90.41
2019-05-23T02:31:27.704Z,90.47
2019-05-23T02:33:55.183Z,90.78
2019-05-23T02:36:22.468Z,90.75
2019-05-23T02:39:00.466Z,91.04
2019-05-23T02:41:38.088Z,90.57
2019-05-23T02:44:15.861Z,90.30
2019-05-23T02:46:50.961Z,90.26
2019-05-23T02:49:27.464Z,89.97
2019-05-23T02:51:55.123Z,90.00
2019-05-23T02:54:26.516Z,89.96
2019-05-23T02:56:56.133Z,90.00
2019-05-23T02:59:48.461Z,90.25
2019-05-23T03:02:39.226Z,89.82
2019-05-23T03:05:09.933Z,90.11
2019-05-23T03:07:38.340Z,90.75
2019-05-23T03:10:09.271Z,90.94
2019-05-23T03:12:38.310Z,91.19
2019-05-23T03:15:08.262Z,91.04
2019-05-23T03:17:42.608Z,90.93
2019-05-23T03:20:10.891Z,91.22
2019-05-23T03:22:56.738Z,91.24
2019-05-23T03:25:37.744Z,91.26
2019-05-23T03:28:07.087Z,91.46
2019-05-23T03:30:42.161Z,91.68
2019-05-23T03:33:09.482Z,91.79
2019-05-23T03:35:38.381Z,91.80
2019-05-23T03:38:05.443Z,91.63
2019-05-23T03:40:32.664Z,91.96
2019-05-23T03:43:00.763Z,91.97
2019-05-23T03:45:32.275Z,92.00
2019-05-23T03:48:00.366Z,92.69
2019-05-23T03:50:28.961Z,92.37
2019-05-23T03:52:56.474Z,92.14
2019-05-23T03:55:24.443Z,92.00
2019-05-23T03:57:52.442Z,91.92
2019-05-23T04:00:21.085Z,91.99
2019-05-23T04:02:49.616Z,91.40
2019-05-23T04:05:16.960Z,91.84
2019-05-23T04:07:44.418Z,92.00
2019-05-23T04:10:11.899Z,92.16
2019-05-23T04:12:38.818Z,92.68
2019-05-23T04:15:07.246Z,93.00
2019-05-23T04:17:34.138Z,92.96
2019-05-23T04:20:01.397Z,92.86
2019-05-23T04:22:28.872Z,92.82
2019-05-23T04:24:56.003Z,92.76
2019-05-23T04:27:23.354Z,92.63
2019-05-23T04:29:50.148Z,92.68
2019-05-23T04:32:17.270Z,92.47
2019-05-23T04:34:44.154Z,92.01
2019-05-23T04:37:11.005Z,91.86
2019-05-23T04:39:37.859Z,91.72
2019-05-23T04:42:04.928Z,91.14
2019-05-23T04:44:31.811Z,91.02
2019-05-23T04:46:59.551Z,91.14
2019-05-23T04:49:26.783Z,90.82
2019-05-23T04:51:54.739Z,88.03
2019-05-23T04:54:23.002Z,86.64
2019-05-23T04:56:50.640Z,86.50
2019-05-23T04:59:18.547Z,86.19
2019-05-23T05:01:46.897Z,86.31
2019-05-23T05:04:13.959Z,84.60
2019-05-23T05:06:41.790Z,84.53
2019-05-23T05:09:10.076Z,83.67
2019-05-23T05:11:36.865Z,83.52
2019-05-23T05:14:04.525Z,82.70
2019-05-23T05:16:31.963Z,82.10
2019-05-23T05:18:58.995Z,82.18
2019-05-23T05:21:26.113Z,83.51
2019-05-23T05:23:52.875Z,82.69
2019-05-23T05:26:22.229Z,83.97
2019-05-23T05:28:50.284Z,83.24
2019-05-23T05:31:17.585Z,81.73
2019-05-23T05:33:44.481Z,76.91
2019-05-23T05:36:11.890Z,75.90
2019-05-23T05:38:38.976Z,75.47
2019-05-23T05:41:06.040Z,75.58
2019-05-23T05:43:32.985Z,73.53
2019-05-23T05:45:59.912Z,75.21
2019-05-23T05:48:28.069Z,75.38
2019-05-23T05:50:55.104Z,75.80
2019-05-23T05:53:22.068Z,77.23
2019-05-23T05:55:48.874Z,75.32
2019-05-23T05:58:15.766Z,77.25
2019-05-23T06:00:50.402Z,78.63
2019-05-23T06:03:17.170Z,78.45
2019-05-23T06:06:02.331Z,76.26
2019-05-23T06:08:30.999Z,76.60
2019-05-23T06:10:58.630Z,76.17
2019-05-23T06:13:25.322Z,76.62
2019-05-23T06:15:53.707Z,76.60
2019-05-23T06:18:20.491Z,77.09
2019-05-23T06:20:48.589Z,75.36
2019-05-23T06:23:16.348Z,75.78
2019-05-23T06:25:43.210Z,77.02
2019-05-23T06:28:13.202Z,75.45
2019-05-23T06:30:41.908Z,75.65
2019-05-23T06:33:22.843Z,76.77
2019-05-23T06:35:38.296Z,78.62
2019-05-23T06:38:05.279Z,76.95
2019-05-23T06:40:40.766Z,77.29
2019-05-23T06:43:25.834Z,79.31
2019-05-23T06:46:06.435Z,77.99
2019-05-23T06:48:45.814Z,76.65
2019-05-23T06:51:26.681Z,76.13
2019-05-23T06:53:58.670Z,76.33
2019-05-23T06:56:43.866Z,73.29
2019-05-23T06:59:29.149Z,73.38
2019-05-23T07:02:15.547Z,73.44
2019-05-23T07:04:59.188Z,73.16
2019-05-23T07:07:39.225Z,73.71
2019-05-23T07:10:14.147Z,74.75
2019-05-23T07:12:55.124Z,75.13
2019-05-23T07:15:36.106Z,74.75
2019-05-23T07:18:15.505Z,71.34
2019-05-23T07:20:47.608Z,73.22
2019-05-23T07:23:23.285Z,73.22
2019-05-23T07:26:10.997Z,73.72
2019-05-23T07:28:51.066Z,73.43
2019-05-23T07:31:27.627Z,74.90
2019-05-23T07:34:18.158Z,73.80
2019-05-23T07:36:58.250Z,73.75
2019-05-23T07:39:27.894Z,74.49
2019-05-23T07:41:56.999Z,74.49
2019-05-23T07:44:25.029Z,71.93
2019-05-23T07:46:52.763Z,69.19
2019-05-23T07:49:24.791Z,69.19
2019-05-23T07:52:07.689Z,70.61
2019-05-23T07:54:48.775Z,68.35
2019-05-23T07:57:38.590Z,70.89
2019-05-23T08:00:21.272Z,70.45
2019-05-23T08:03:04.249Z,67.59
2019-05-23T08:05:40.572Z,67.74
2019-05-23T08:08:09.392Z,70.05
2019-05-23T08:10:39.177Z,71.04
2019-05-23T08:13:09.637Z,69.33
2019-05-23T08:15:39.914Z,68.34
2019-05-23T08:18:10.634Z,68.38
2019-05-23T08:20:38.046Z,70.38
2019-05-23T08:23:04.843Z,69.10
2019-05-23T08:25:31.719Z,65.22
2019-05-23T08:27:58.965Z,66.94
2019-05-23T08:30:25.900Z,66.53
2019-05-23T08:32:53.095Z,70.05
2019-05-23T08:35:20.317Z,71.12
2019-05-23T08:37:47.169Z,70.76
2019-05-23T08:40:15.443Z,70.08
2019-05-23T08:42:43.464Z,69.01
2019-05-23T08:45:10.987Z,67.34
2019-05-23T08:47:39.205Z,68.12
2019-05-23T08:50:08.836Z,65.58
2019-05-23T08:52:35.564Z,65.72
2019-05-23T08:55:25.132Z,65.74
2019-05-23T08:57:53.936Z,65.59
2019-05-23T09:00:24.762Z,63.11
2019-05-23T09:02:52.922Z,65.79
2019-05-23T09:05:20.951Z,64.47
2019-05-23T09:07:48.405Z,63.40
2019-05-23T09:10:15.662Z,64.75
2019-05-23T09:12:42.422Z,64.79
2019-05-23T09:15:10.484Z,63.60
2019-05-23T09:17:52.268Z,64.24
2019-05-23T09:20:08.862Z,64.70
2019-05-23T09:22:36.262Z,64.73
2019-05-23T09:25:04.635Z,62.13
2019-05-23T09:27:34.603Z,58.75
2019-05-23T09:30:01.012Z,63.22
2019-05-23T09:32:28.357Z,60.42
2019-05-23T09:34:55.034Z,63.01
2019-05-23T09:37:21.736Z,63.30
2019-05-23T09:39:49.462Z,60.36
2019-05-23T09:42:16.546Z,63.05
2019-05-23T09:44:43.381Z,61.26
2019-05-23T09:47:10.205Z,60.46
2019-05-23T09:49:36.935Z,62.19
2019-05-23T09:52:05.242Z,58.59
2019-05-23T09:54:32.477Z,61.45
2019-05-23T09:57:00.362Z,58.91
2019-05-23T09:59:27.382Z,60.86
2019-05-23T10:01:55.815Z,60.38
2019-05-23T10:04:22.606Z,59.36
2019-05-23T10:06:49.294Z,60.93
2019-05-23T10:09:16.016Z,53.73
2019-05-23T10:11:42.738Z,59.30
2019-05-23T10:14:11.455Z,58.99
2019-05-23T10:16:38.667Z,56.06
2019-05-23T10:19:05.475Z,57.85
2019-05-23T10:21:32.522Z,56.90
2019-05-23T10:23:59.367Z,59.07
2019-05-23T10:26:26.542Z,58.11
2019-05-23T10:28:53.536Z,60.55
2019-05-23T10:31:20.974Z,60.05
2019-05-23T10:33:47.679Z,60.68
2019-05-23T10:36:14.494Z,58.26
2019-05-23T10:38:41.724Z,57.59
2019-05-23T10:41:08.702Z,58.13
2019-05-23T10:43:35.384Z,58.25
2019-05-23T10:46:02.214Z,58.00
2019-05-23T10:48:29.820Z,56.82
2019-05-23T10:50:56.516Z,59.02
2019-05-23T10:53:23.482Z,59.94
2019-05-23T10:55:50.221Z,58.31
2019-05-23T10:58:17.565Z,56.79
2019-05-23T11:00:45.582Z,58.96
2019-05-23T11:03:12.567Z,56.42
2019-05-23T11:05:39.293Z,57.34
2019-05-23T11:08:07.785Z,55.69
2019-05-23T11:10:34.940Z,57.54
2019-05-23T11:13:02.828Z,60.56
2019-05-23T11:15:30.159Z,55.99
2019-05-23T11:17:57.360Z,55.95
2019-05-23T11:20:26.931Z,58.04
2019-05-23T11:22:55.769Z,59.01
2019-05-23T11:25:23.559Z,57.39
2019-05-23T11:27:50.340Z,59.39
2019-05-23T11:30:22.302Z,57.47
2019-05-23T11:32:48.979Z,56.18
2019-05-23T11:35:15.763Z,56.48
2019-05-23T11:37:42.678Z,52.89
2019-05-23T11:40:09.679Z,54.64
2019-05-23T11:42:36.351Z,59.72
2019-05-23T11:45:05.125Z,55.28
2019-05-23T11:47:32.300Z,55.11
2019-05-23T11:49:59.205Z,51.46
2019-05-23T11:52:26.541Z,58.46
2019-05-23T11:54:53.381Z,57.78
2019-05-23T11:57:20.213Z,58.60
2019-05-23T11:59:48.869Z,57.79
2019-05-23T12:02:23.929Z,58.39
2019-05-23T12:04:52.415Z,56.90
2019-05-23T12:07:20.937Z,56.13
2019-05-23T12:09:47.902Z,58.54
2019-05-23T12:12:14.693Z,58.92
2019-05-23T12:14:41.386Z,58.61
2019-05-23T12:17:08.415Z,55.83
2019-05-23T12:19:35.762Z,55.36
2019-05-23T12:22:02.674Z,55.62
2019-05-23T12:24:34.422Z,58.85
2019-05-23T12:26:58.278Z,54.91
2019-05-23T12:29:25.106Z,59.79
2019-05-23T12:31:51.804Z,56.50
2019-05-23T12:34:18.800Z,55.99
2019-05-23T12:36:45.517Z,55.38
2019-05-23T12:39:12.492Z,50.98
2019-05-23T12:41:41.358Z,52.78
2019-05-23T12:44:08.437Z,56.22
2019-05-23T12:46:35.078Z,55.20
2019-05-23T12:49:03.773Z,57.25
2019-05-23T12:51:38.180Z,53.13
2019-05-23T12:54:05.086Z,54.91
2019-05-23T12:56:32.483Z,51.97
2019-05-23T12:59:00.022Z,53.08
2019-05-23T13:01:28.249Z,54.30
2019-05-23T13:03:55.077Z,53.51
2019-05-23T13:06:21.872Z,54.41
2019-05-23T13:08:48.837Z,53.24
2019-05-23T13:11:15.763Z,53.68
2019-05-23T13:13:42.511Z,54.34
2019-05-23T13:16:09.292Z,56.03
2019-05-23T13:18:35.973Z,55.33
2019-05-23T13:21:02.748Z,56.47
2019-05-23T13:23:29.762Z,54.70
2019-05-23T13:25:56.472Z,54.67
2019-05-23T13:28:23.533Z,56.81
2019-05-23T13:30:50.436Z,57.82
2019-05-23T13:33:17.384Z,55.80
2019-05-23T13:35:44.609Z,55.98
2019-05-23T13:38:11.622Z,54.96
2019-05-23T13:40:38.567Z,55.98
2019-05-23T13:43:08.028Z,55.71
2019-05-23T13:45:34.062Z,58.78
2019-05-23T13:48:00.861Z,58.19
2019-05-23T13:50:27.892Z,57.42
2019-05-23T13:52:54.765Z,54.84
2019-05-23T13:55:22.030Z,57.11
2019-05-23T13:57:49.029Z,56.14
2019-05-23T14:00:17.771Z,57.62
2019-05-23T14:02:44.543Z,56.72
2019-05-23T14:05:11.854Z,57.49
2019-05-23T14:07:38.630Z,55.99
2019-05-23T14:10:10.112Z,55.67
2019-05-23T14:12:37.204Z,57.83
2019-05-23T14:15:09.946Z,58.08
2019-05-23T14:17:41.803Z,56.81
2019-05-23T14:20:08.683Z,55.32
2019-05-23T14:22:40.128Z,56.25
2019-05-23T14:25:07.016Z,56.25
2019-05-23T14:27:47.684Z,55.59
2019-05-23T14:30:29.553Z,57.20
2019-05-23T14:32:58.972Z,59.10
2019-05-23T14:35:27.576Z,60.15
2019-05-23T14:37:57.303Z,59.38
2019-05-23T14:40:24.467Z,59.70
2019-05-23T14:42:53.586Z,60.06
2019-05-23T14:45:39.222Z,60.57
2019-05-23T14:48:11.727Z,59.64
2019-05-23T14:50:53.764Z,58.30
2019-05-23T14:53:22.454Z,58.51
2019-05-23T14:55:49.262Z,57.79
2019-05-23T14:58:16.084Z,59.06
2019-05-23T15:00:44.613Z,58.98
2019-05-23T15:03:11.992Z,57.40
2019-05-23T15:05:38.823Z,59.83
2019-05-23T15:08:05.534Z,59.20
2019-05-23T15:10:32.298Z,57.45
2019-05-23T15:12:59.184Z,57.58
2019-05-23T15:15:26.076Z,56.79
2019-05-23T15:17:52.913Z,56.34
2019-05-23T15:20:19.635Z,56.87
2019-05-23T15:22:46.312Z,57.59
2019-05-23T15:25:13.199Z,55.79
2019-05-23T15:27:39.984Z,55.56
2019-05-23T15:30:07.488Z,57.79
2019-05-23T15:32:34.323Z,58.24
2019-05-23T15:35:01.067Z,58.42
2019-05-23T15:37:28.106Z,57.95
2019-05-23T15:39:54.992Z,58.55
2019-05-23T15:42:21.990Z,59.18
2019-05-23T15:44:48.801Z,61.21
2019-05-23T15:47:16.860Z,61.89
2019-05-23T15:49:45.564Z,61.62
2019-05-23T15:52:33.291Z,62.20
2019-05-23T15:55:02.075Z,60.91
2019-05-23T15:57:47.899Z,61.55
2019-05-23T16:00:20.022Z,62.84
2019-05-23T16:02:52.520Z,62.19
2019-05-23T16:05:19.293Z,62.08
2019-05-23T16:07:46.318Z,61.59
2019-05-23T16:10:13.626Z,62.58
2019-05-23T16:12:41.950Z,64.40
2019-05-23T16:15:09.205Z,63.53
2019-05-23T16:17:36.316Z,63.58
2019-05-23T16:20:04.721Z,63.77
2019-05-23T16:22:31.786Z,63.93
2019-05-23T16:24:58.464Z,65.81
2019-05-23T16:27:25.303Z,66.72
2019-05-23T16:29:52.415Z,64.73
2019-05-23T16:32:19.355Z,64.39
2019-05-23T16:34:46.548Z,69.49
2019-05-23T16:37:13.970Z,69.08
2019-05-23T16:39:47.178Z,72.50
2019-05-23T16:42:10.978Z,70.57
2019-05-23T16:44:37.979Z,69.23
2019-05-23T16:47:04.993Z,71.29
2019-05-23T16:49:31.789Z,70.83
2019-05-23T16:51:59.582Z,69.48
2019-05-23T16:54:28.103Z,68.67
2019-05-23T16:56:56.656Z,72.60
2019-05-23T16:59:25.264Z,72.87
2019-05-23T17:02:06.512Z,72.44
2019-05-23T17:04:36.976Z,71.59
2019-05-23T17:07:14.879Z,71.65
2019-05-23T17:09:43.562Z,70.16
2019-05-23T17:12:24.245Z,70.37
2019-05-23T17:14:52.803Z,71.57
2019-05-23T17:17:57.477Z,72.37
2019-05-23T17:20:23.438Z,74.21
2019-05-23T17:22:52.219Z,74.49
2019-05-23T17:25:21.129Z,74.43
2019-05-23T17:27:50.021Z,75.21
2019-05-23T17:30:35.691Z,75.86
2019-05-23T17:33:04.379Z,76.84
2019-05-23T17:35:31.169Z,75.90
2019-05-23T17:37:57.882Z,76.58
2019-05-23T17:40:25.853Z,76.37
2019-05-23T17:42:53.033Z,76.27
2019-05-23T17:45:19.959Z,75.39
2019-05-23T17:47:46.988Z,75.65
2019-05-23T17:50:13.876Z,76.84
2019-05-23T17:52:40.571Z,75.72
2019-05-23T17:55:07.487Z,76.99
2019-05-23T17:57:34.791Z,77.12
2019-05-23T18:00:01.513Z,76.77
2019-05-23T18:02:28.552Z,76.77
2019-05-23T18:04:55.418Z,76.81
2019-05-23T18:07:22.447Z,77.80
2019-05-23T18:09:49.699Z,77.99
2019-05-23T18:12:16.610Z,78.38
2019-05-23T18:14:43.503Z,77.57
2019-05-23T18:17:10.753Z,77.35
2019-05-23T18:19:38.196Z,79.87
2019-05-23T18:22:05.198Z,79.21
2019-05-23T18:24:33.046Z,79.12
2019-05-23T18:26:59.818Z,79.85
2019-05-23T18:29:26.609Z,79.95
2019-05-23T18:31:54.390Z,80.17
2019-05-23T18:34:22.013Z,80.23
2019-05-23T18:36:48.965Z,80.47
2019-05-23T18:39:16.649Z,81.10
2019-05-23T18:41:44.516Z,79.32
2019-05-23T18:44:12.944Z,81.02
2019-05-23T18:46:52.373Z,82.02
2019-05-23T18:49:19.366Z,80.44
2019-05-23T18:51:46.348Z,81.61
2019-05-23T18:54:13.289Z,80.24
2019-05-23T18:56:40.194Z,81.00
2019-05-23T18:59:07.600Z,81.06
2019-05-23T19:01:34.392Z,80.37
2019-05-23T19:04:01.413Z,79.94
2019-05-23T19:06:28.974Z,80.39
2019-05-23T19:08:57.022Z,81.02
2019-05-23T19:11:24.444Z,80.85
2019-05-23T19:13:51.386Z,81.83
2019-05-23T19:16:18.128Z,81.97
2019-05-23T19:18:46.775Z,81.15
2019-05-23T19:21:14.461Z,81.50
2019-05-23T19:23:41.983Z,80.85
2019-05-23T19:26:09.073Z,80.31
2019-05-23T19:28:36.286Z,80.70
2019-05-23T19:31:04.418Z,82.12
2019-05-23T19:33:31.344Z,80.46
2019-05-23T19:35:58.239Z,80.27
2019-05-23T19:38:25.241Z,79.44
2019-05-23T19:40:52.068Z,80.52
2019-05-23T19:43:20.769Z,80.24
2019-05-23T19:45:47.655Z,79.88
2019-05-23T19:48:14.584Z,78.72
2019-05-23T19:50:41.400Z,80.03
2019-05-23T19:53:08.103Z,81.12
2019-05-23T19:55:34.980Z,82.59
2019-05-23T19:58:01.699Z,82.54
2019-05-23T20:00:30.315Z,81.79
2019-05-23T20:02:58.462Z,80.36
2019-05-23T20:05:30.121Z,79.85
2019-05-23T20:07:57.098Z,79.72
2019-05-23T20:10:25.990Z,79.09
2019-05-23T20:12:52.763Z,79.00
2019-05-23T20:15:20.967Z,80.85
2019-05-23T20:17:51.451Z,80.49
2019-05-23T20:20:16.404Z,80.33
2019-05-23T20:22:43.249Z,81.02
2019-05-23T20:25:11.460Z,79.83
2019-05-23T20:27:38.138Z,79.20
2019-05-23T20:30:07.297Z,78.83
2019-05-23T20:32:34.223Z,78.62
2019-05-23T20:35:01.014Z,78.48
2019-05-23T20:37:29.508Z,79.47
2019-05-23T20:39:56.195Z,74.44
2019-05-23T20:42:22.921Z,73.26
2019-05-23T20:44:49.728Z,71.91
2019-05-23T20:47:16.686Z,74.89
2019-05-23T20:49:43.388Z,76.05
2019-05-23T20:52:10.192Z,72.92
2019-05-23T20:54:37.020Z,73.71
2019-05-23T20:57:03.902Z,72.41
2019-05-23T20:59:30.815Z,73.37
2019-05-23T21:01:58.062Z,73.91
2019-05-23T21:04:24.733Z,74.02
2019-05-23T21:06:51.718Z,74.84
2019-05-23T21:09:18.434Z,76.59
2019-05-23T21:11:45.125Z,74.52
2019-05-23T21:14:12.097Z,75.04
2019-05-23T21:16:38.934Z,76.34
2019-05-23T21:19:05.581Z,78.13
2019-05-23T21:21:32.264Z,77.17
2019-05-23T21:23:58.977Z,76.20
2019-05-23T21:26:25.685Z,76.68
2019-05-23T21:28:52.609Z,78.24
2019-05-23T21:31:21.446Z,78.01
2019-05-23T21:33:48.262Z,77.84
2019-05-23T21:36:14.943Z,75.01
2019-05-23T21:38:41.633Z,76.50
2019-05-23T21:41:08.454Z,78.28
2019-05-23T21:43:35.309Z,77.63
2019-05-23T21:46:01.993Z,77.35
2019-05-23T21:48:28.712Z,78.11
2019-05-23T21:50:55.691Z,76.81
2019-05-23T21:53:22.623Z,77.20
2019-05-23T21:55:49.607Z,77.62
2019-05-23T21:58:16.310Z,78.29
2019-05-23T22:00:51.620Z,76.64
2019-05-23T22:03:21.913Z,78.38
2019-05-23T22:05:48.722Z,78.49
2019-05-23T22:08:15.556Z,78.08
2019-05-23T22:10:42.355Z,77.47
2019-05-23T22:13:09.110Z,77.17
2019-05-23T22:15:36.599Z,78.18
2019-05-23T22:18:04.805Z,78.57
2019-05-23T22:20:31.539Z,78.08
2019-05-23T22:22:58.762Z,77.92
2019-05-23T22:25:32.050Z,80.59
2019-05-23T22:27:59.025Z,78.41
2019-05-23T22:30:25.885Z,77.94
2019-05-23T22:32:52.737Z,77.46
2019-05-23T22:35:20.462Z,80.27
2019-05-23T22:37:47.300Z,78.34
2019-05-23T22:40:14.407Z,79.33
2019-05-23T22:42:41.930Z,79.80
2019-05-23T22:45:12.348Z,79.54
2019-05-23T22:47:39.249Z,79.97
2019-05-23T22:50:06.281Z,79.44
2019-05-23T22:52:33.074Z,80.58
2019-05-23T22:54:59.924Z,80.75
2019-05-23T22:57:26.697Z,80.51
2019-05-23T22:59:53.489Z,80.32
2019-05-23T23:02:20.404Z,79.82
2019-05-23T23:04:47.201Z,79.99
2019-05-23T23:07:14.878Z,80.83
2019-05-23T23:09:41.675Z,81.02
2019-05-23T23:12:08.493Z,81.10
2019-05-23T23:14:35.319Z,81.15
2019-05-23T23:17:02.169Z,80.21
2019-05-23T23:19:29.229Z,80.78
2019-05-23T23:21:56.046Z,80.12
2019-05-23T23:24:22.738Z,80.97
2019-05-23T23:26:49.671Z,81.46
2019-05-23T23:29:16.452Z,80.41
2019-05-23T23:31:43.241Z,81.09
2019-05-23T23:34:10.052Z,80.46
2019-05-23T23:36:36.788Z,80.66
2019-05-23T23:39:05.494Z,81.23
2019-05-23T23:41:32.259Z,81.98
2019-05-23T23:44:00.125Z,81.04
2019-05-23T23:46:45.590Z,82.01
2019-05-23T23:49:30.795Z,81.23
2019-05-23T23:52:16.028Z,82.09
2019-05-23T23:55:01.656Z,81.60
2019-05-23T23:57:46.897Z,80.71
